Mahomet, Texas
Current Conditions -  °F | °C
As of 7:53 PM on Friday 19 Dec 2014 (Local Time) from KBMQ Reporting Station
Overcast Overcast  
Wind Chill: 44°   Ceiling: 800
Heat Index: 48°   Visibility: 10mi
Dew Point: 44°   Wind: 8mph
Humidity: 86%   Direction: 10°N
Pressure: 30.19"   Gusts: NA
Location:  30.7452°N, 98.043°W
Report Text: KBMQ 200153Z AUTO 01007KT 10SM OVC008 09/07 A3019 RMK AO2 CIG 006V012 SLP220 T00890067
Loading
Personal Weather Stations






























Interactive Weather Map New forecast layout! Learn more

10-Day Weather Forecast

Advertisements
Track Severe Weather on mobile